createdAt,value
2017-11-11T16:25:35.487Z,993.86
2017-11-11T16:26:37.835Z,993.93
2017-11-11T16:27:41.491Z,993.91
2017-11-11T16:28:45.364Z,993.92
2017-11-11T17:50:10.650Z,994.15
2017-11-11T17:51:12.050Z,994.14
2017-11-11T17:52:14.880Z,994.16
2017-11-11T17:53:17.592Z,994.17
2017-11-11T17:54:19.013Z,994.17
2017-11-11T17:55:22.617Z,994.15
2017-11-11T17:56:25.515Z,994.21
2017-11-11T17:57:28.201Z,994.12
2017-11-11T17:58:31.018Z,994.18
2017-11-11T17:59:33.820Z,994.16
2017-11-11T18:00:36.514Z,994.16
2017-11-11T18:01:40.704Z,994.20
2017-11-11T18:02:44.566Z,994.15
2017-11-11T18:03:48.108Z,994.16
2017-11-11T18:04:51.706Z,994.22
2017-11-11T18:05:55.502Z,994.14
2017-11-11T18:06:59.045Z,994.15
2017-11-11T18:08:02.670Z,994.16
2017-11-11T18:09:06.290Z,994.16
2017-11-11T18:10:07.758Z,994.13
2017-11-11T18:11:10.550Z,994.17
2017-11-11T18:12:13.447Z,994.16
2017-11-11T18:13:16.335Z,994.15
2017-11-11T18:14:18.818Z,994.16
2017-11-11T18:15:21.670Z,994.15
2017-11-11T18:16:24.433Z,994.09
2017-11-11T18:17:27.459Z,994.10
2017-11-11T18:18:30.480Z,994.10
2017-11-11T18:19:33.196Z,994.06
2017-11-11T18:20:35.877Z,994.12
2017-11-11T18:21:37.340Z,994.11
2017-11-11T18:22:40.317Z,994.10
2017-11-11T18:23:43.160Z,994.12
2017-11-11T18:24:46.389Z,994.11
2017-11-11T18:25:49.168Z,994.13
2017-11-11T18:26:52.007Z,994.17
2017-11-11T18:27:54.910Z,994.14
2017-11-11T18:28:58.242Z,994.10
2017-11-11T18:30:01.321Z,994.13
2017-11-11T18:31:04.019Z,994.13
2017-11-11T18:32:07.026Z,994.14
2017-11-11T18:33:09.737Z,994.13
2017-11-11T18:34:12.075Z,994.14
2017-11-11T18:35:13.559Z,994.12
2017-11-11T18:36:16.297Z,994.16
2017-11-11T18:37:19.117Z,994.13
2017-11-11T18:38:22.917Z,994.13
2017-11-11T18:39:26.184Z,994.16
2017-11-11T18:40:29.014Z,994.09
2017-11-11T18:41:31.577Z,994.14
2017-11-11T18:42:33.031Z,994.13
2017-11-11T18:43:35.702Z,994.14
2017-11-11T18:44:37.151Z,994.19
2017-11-11T18:45:41.989Z,994.18
2017-11-11T18:46:44.826Z,994.20
2017-11-11T18:47:47.533Z,994.24
2017-11-11T18:48:50.331Z,994.23
2017-11-11T18:49:53.080Z,994.29
2017-11-11T18:50:55.782Z,994.30
2017-11-11T18:51:58.545Z,994.29
2017-11-11T18:53:01.244Z,994.31
2017-11-11T18:54:04.212Z,994.31
2017-11-11T18:55:08.502Z,994.29
2017-11-11T18:56:11.596Z,994.28
2017-11-11T18:57:15.434Z,994.34
2017-11-11T18:58:19.100Z,994.28
2017-11-11T18:59:22.711Z,994.33
2017-11-11T19:00:26.578Z,994.32
2017-11-11T19:01:30.121Z,994.37
2017-11-11T19:02:33.658Z,994.29
2017-11-11T19:03:36.965Z,994.32
2017-11-11T19:04:40.333Z,994.31
2017-11-11T19:05:43.876Z,994.33
2017-11-11T19:06:47.484Z,994.27
2017-11-11T19:07:51.113Z,994.28
2017-11-11T19:08:54.652Z,994.30
2017-11-11T19:09:58.693Z,994.32
2017-11-11T19:11:02.289Z,994.30
2017-11-11T19:12:05.983Z,994.33
2017-11-11T19:13:10.037Z,994.32
2017-11-11T19:14:12.753Z,994.34
2017-11-11T19:15:15.560Z,994.36
2017-11-11T19:16:18.141Z,994.31
2017-11-11T19:17:20.967Z,994.33
2017-11-11T19:18:23.808Z,994.36
2017-11-11T19:19:26.611Z,994.33
2017-11-11T19:20:29.547Z,994.40
2017-11-11T19:21:32.317Z,994.35
2017-11-11T19:22:35.256Z,994.35
2017-11-11T19:23:39.514Z,994.35
2017-11-11T19:24:44.270Z,994.35
2017-11-11T19:25:48.022Z,994.39
2017-11-11T19:26:51.621Z,994.38
2017-11-11T19:27:55.168Z,994.38
2017-11-11T19:28:58.714Z,994.37
2017-11-11T19:30:01.420Z,994.43
2017-11-11T19:31:04.220Z,994.42
2017-11-11T19:32:06.938Z,994.45
2017-11-11T19:33:09.732Z,994.42
2017-11-11T19:34:12.666Z,994.43
2017-11-11T19:35:15.388Z,994.42
2017-11-11T19:36:16.910Z,994.46
2017-11-11T19:37:19.718Z,994.48
2017-11-11T19:38:22.557Z,994.50
2017-11-11T19:39:25.173Z,994.51
2017-11-11T19:40:28.063Z,994.49
2017-11-11T19:41:30.860Z,994.55
2017-11-11T19:42:33.601Z,994.53
2017-11-11T19:43:36.402Z,994.58
2017-11-11T19:44:39.086Z,994.57
2017-11-11T19:45:41.791Z,994.59
2017-11-11T19:46:44.524Z,994.60
2017-11-11T19:47:47.158Z,994.58
2017-11-11T19:48:50.139Z,994.59
2017-11-11T19:49:53.033Z,994.60
2017-11-11T19:50:54.500Z,994.65
2017-11-11T19:51:57.150Z,994.63
2017-11-11T19:53:00.027Z,994.64
2017-11-11T19:54:03.021Z,994.68
2017-11-11T19:55:05.960Z,994.72
2017-11-11T19:56:08.730Z,994.69
2017-11-11T19:57:12.587Z,994.69
2017-11-11T19:58:16.352Z,994.64
2017-11-11T19:59:20.126Z,994.71
2017-11-11T20:00:25.227Z,994.65
2017-11-11T20:01:28.834Z,994.67
2017-11-11T20:02:32.336Z,994.70
2017-11-11T20:03:36.288Z,994.73
2017-11-11T20:10:05.396Z,994.66
2017-11-11T20:11:08.330Z,994.71
